Time;durP1;ratioP1;P1;durP2;ratioP2;P2;SDS_P1;SDS_P2;PMS_P1;PMS_P2;Temp;Humidity;BMP_temperature;BMP_pressure;BME280_temperature;BME280_humidity;BME280_pressure;Samples;Min_cycle;Max_cycle;Signal;HPM_P1;HPM_P2
2023/01/11 00:01:31;;;;;;;4.88;2.20;;;;;;;;;;5106679;28;20024;-81
2023/01/11 00:03:57;;;;;;;4.45;1.60;;;;;;;;;;5117932;28;20027;-81
2023/01/11 00:06:23;;;;;;;4.43;1.60;;;;;;;;;;5115065;28;20024;-82
2023/01/11 00:08:49;;;;;;;3.90;1.80;;;;;;;;;;5097940;28;20039;-81
2023/01/11 00:11:15;;;;;;;4.57;2.30;;;;;;;;;;5097409;28;20039;-81
2023/01/11 00:13:45;;;;;;;4.93;1.75;;;;;;;;;;5101743;28;20028;-82
2023/01/11 00:16:11;;;;;;;3.58;1.55;;;;;;;;;;5105071;28;20023;-82
2023/01/11 00:18:37;;;;;;;4.13;1.92;;;;;;;;;;5104017;28;20020;-81
2023/01/11 00:21:06;;;;;;;7.43;2.17;;;;;;;;;;5131315;28;20054;-82
2023/01/11 00:23:33;;;;;;;4.28;1.55;;;;;;;;;;5111994;28;20055;-81
2023/01/11 00:26:01;;;;;;;6.00;1.85;;;;;;;;;;5123960;28;20023;-82
2023/01/11 00:28:27;;;;;;;4.43;1.60;;;;;;;;;;5114889;28;20043;-81
2023/01/11 00:30:53;;;;;;;6.35;1.65;;;;;;;;;;5115284;28;20036;-81
2023/01/11 00:33:19;;;;;;;3.25;1.52;;;;;;;;;;5127348;28;20031;-79
2023/01/11 00:35:45;;;;;;;5.90;1.85;;;;;;;;;;5112207;28;20085;-81
2023/01/11 00:38:42;;;;;;;5.05;1.65;;;;;;;;;;5120506;28;20052;-82
2023/01/11 00:47:55;;;;;;;4.93;1.67;;;;;;;;;;5119815;28;20043;-79
2023/01/11 00:49:13;;;;;;;4.68;1.30;;;;;;;;;;5100835;28;20046;-81
2023/01/11 00:51:39;;;;;;;4.28;1.67;;;;;;;;;;5099071;28;20032;-82
2023/01/11 00:54:05;;;;;;;4.18;1.58;;;;;;;;;;5110264;28;20035;-81
2023/01/11 00:56:31;;;;;;;7.47;2.17;;;;;;;;;;5106077;28;20020;-81
2023/01/11 00:58:57;;;;;;;4.28;1.88;;;;;;;;;;5104036;28;20032;-81
2023/01/11 01:01:23;;;;;;;4.93;2.78;;;;;;;;;;5101014;28;20027;-81
2023/01/11 01:03:49;;;;;;;4.18;1.83;;;;;;;;;;5114683;28;20028;-81
2023/01/11 01:06:15;;;;;;;4.72;1.83;;;;;;;;;;5113247;28;20012;-81
2023/01/11 01:08:41;;;;;;;4.05;1.85;;;;;;;;;;5113596;28;20330;-80
2023/01/11 01:11:07;;;;;;;4.22;1.70;;;;;;;;;;5125223;28;20087;-80
2023/01/11 01:16:18;;;;;;;4.72;1.60;;;;;;;;;;5104864;28;20094;-81
2023/01/11 01:18:44;;;;;;;4.32;1.95;;;;;;;;;;5118357;28;20020;-81
2023/01/11 01:21:10;;;;;;;4.18;1.80;;;;;;;;;;5108025;28;20030;-81
2023/01/11 01:23:36;;;;;;;4.13;1.80;;;;;;;;;;5107504;28;20024;-81
2023/01/11 01:26:03;;;;;;;4.20;1.83;;;;;;;;;;5120406;28;20076;-81
2023/01/11 01:28:29;;;;;;;5.40;2.00;;;;;;;;;;5100178;28;20035;-81
2023/01/11 01:30:55;;;;;;;5.03;1.90;;;;;;;;;;5100609;28;20500;-81
2023/01/11 01:33:22;;;;;;;4.82;1.80;;;;;;;;;;5111650;28;20028;-82
2023/01/11 01:35:48;;;;;;;4.38;1.73;;;;;;;;;;5119166;28;20024;-81
2023/01/11 01:38:14;;;;;;;4.53;1.73;;;;;;;;;;5102243;28;20071;-80
2023/01/11 01:40:44;;;;;;;4.40;1.75;;;;;;;;;;5099746;28;20449;-81
2023/01/11 01:43:11;;;;;;;4.20;1.52;;;;;;;;;;5104955;28;20032;-81
2023/01/11 01:45:37;;;;;;;5.80;2.08;;;;;;;;;;5105803;28;20062;-81
2023/01/11 01:48:07;;;;;;;7.55;2.22;;;;;;;;;;5115854;28;20024;-81
2023/01/11 01:50:36;;;;;;;5.70;2.08;;;;;;;;;;5119648;28;20041;-82
2023/01/11 01:53:12;;;;;;;4.72;1.92;;;;;;;;;;5118030;28;20035;-81
2023/01/11 01:55:42;;;;;;;3.83;1.67;;;;;;;;;;5100181;28;20506;-81
2023/01/11 01:58:11;;;;;;;4.72;2.05;;;;;;;;;;5099016;28;20028;-81
2023/01/11 02:00:41;;;;;;;3.83;1.90;;;;;;;;;;5098589;28;20028;-80
2023/01/11 02:03:11;;;;;;;4.13;1.73;;;;;;;;;;5104093;28;20032;-81
2023/01/11 02:05:37;;;;;;;3.97;1.88;;;;;;;;;;5116875;28;20027;-81
2023/01/11 02:08:07;;;;;;;5.35;1.95;;;;;;;;;;5101380;28;20039;-82
2023/01/11 02:10:33;;;;;;;4.50;2.13;;;;;;;;;;5112556;28;20056;-81
2023/01/11 02:13:09;;;;;;;6.47;2.42;;;;;;;;;;5114394;28;20026;-82
2023/01/11 02:15:35;;;;;;;4.70;2.25;;;;;;;;;;5109538;28;20478;-82
2023/01/11 02:18:01;;;;;;;4.38;1.88;;;;;;;;;;5119321;28;20450;-82
2023/01/11 02:20:30;;;;;;;6.32;2.30;;;;;;;;;;5118926;28;20073;-82
2023/01/11 02:23:15;;;;;;;5.72;2.47;;;;;;;;;;5105922;28;20485;-82
2023/01/11 02:25:42;;;;;;;4.78;2.40;;;;;;;;;;5104681;28;20028;-82
2023/01/11 02:28:21;;;;;;;5.65;2.22;;;;;;;;;;5101751;28;20028;-82
2023/01/11 02:30:54;;;;;;;4.95;2.30;;;;;;;;;;5115968;28;20035;-82
2023/01/11 02:33:39;;;;;;;6.07;2.67;;;;;;;;;;5116048;28;20069;-80
2023/01/11 02:36:26;;;;;;;4.93;2.08;;;;;;;;;;5115196;28;20020;-81
2023/01/11 02:38:52;;;;;;;6.20;2.08;;;;;;;;;;5115640;28;20106;-81
2023/01/11 02:41:25;;;;;;;5.65;2.40;;;;;;;;;;5098483;28;20059;-81
2023/01/11 02:46:44;;;;;;;6.55;2.75;;;;;;;;;;5117345;28;20500;-81
2023/01/11 02:49:13;;;;;;;6.03;2.80;;;;;;;;;;5114683;28;20069;-81
2023/01/11 02:51:47;;;;;;;7.18;2.92;;;;;;;;;;5115748;28;20076;-81
2023/01/11 02:54:16;;;;;;;7.07;2.80;;;;;;;;;;5100632;28;20027;-81
2023/01/11 02:56:43;;;;;;;6.25;2.70;;;;;;;;;;5104892;28;20512;-80
2023/01/11 02:59:17;;;;;;;6.95;2.70;;;;;;;;;;5113692;28;20107;-81
2023/01/11 03:01:46;;;;;;;6.63;2.83;;;;;;;;;;5097594;28;20028;-82
2023/01/11 03:04:22;;;;;;;8.05;2.85;;;;;;;;;;5111996;28;20177;-81
2023/01/11 03:06:48;;;;;;;6.07;2.85;;;;;;;;;;5116306;28;20028;-81
2023/01/11 03:09:18;;;;;;;6.97;3.03;;;;;;;;;;5109385;28;20027;-81
2023/01/11 03:14:49;;;;;;;5.45;2.42;;;;;;;;;;5097548;28;20043;-82
2023/01/11 03:17:27;;;;;;;8.35;3.45;;;;;;;;;;5098558;28;20028;-82
2023/01/11 03:19:54;;;;;;;7.03;3.60;;;;;;;;;;5118203;28;20027;-82
2023/01/11 03:22:43;;;;;;;6.93;3.38;;;;;;;;;;5110078;28;20020;-82
2023/01/11 03:25:17;;;;;;;7.80;3.13;;;;;;;;;;5098016;28;20035;-81
2023/01/11 03:27:57;;;;;;;6.35;3.55;;;;;;;;;;5114130;28;20042;-82
2023/01/11 03:30:23;;;;;;;8.05;3.42;;;;;;;;;;5112358;28;20081;-81
2023/01/11 03:32:54;;;;;;;6.18;3.28;;;;;;;;;;5098053;28;20028;-82
2023/01/11 03:35:27;;;;;;;10.32;3.58;;;;;;;;;;5095390;28;20029;-82
2023/01/11 03:37:53;;;;;;;7.38;4.07;;;;;;;;;;5105303;28;20028;-81
2023/01/11 03:40:23;;;;;;;7.30;3.40;;;;;;;;;;5116033;28;20058;-82
2023/01/11 03:43:09;;;;;;;6.78;3.67;;;;;;;;;;5114043;28;20020;-82
2023/01/11 03:45:37;;;;;;;7.32;3.28;;;;;;;;;;5118338;28;20065;-81
2023/01/11 03:48:05;;;;;;;9.60;3.97;;;;;;;;;;5110207;28;20031;-81
2023/01/11 03:50:32;;;;;;;5.60;3.13;;;;;;;;;;5118001;28;20032;-82
2023/01/11 03:53:00;;;;;;;6.90;3.60;;;;;;;;;;5104838;28;20039;-81
2023/01/11 03:55:28;;;;;;;7.35;3.95;;;;;;;;;;5119144;28;20020;-82
2023/01/11 03:57:55;;;;;;;7.18;3.70;;;;;;;;;;5112353;28;20069;-81
2023/01/11 04:00:22;;;;;;;7.43;3.78;;;;;;;;;;5112092;28;20027;-82
2023/01/11 04:02:48;;;;;;;8.07;3.42;;;;;;;;;;5106010;28;20020;-82
2023/01/11 04:05:15;;;;;;;6.80;3.30;;;;;;;;;;5121856;28;20030;-81
2023/01/11 04:07:41;;;;;;;7.18;3.60;;;;;;;;;;5104209;28;20097;-82
2023/01/11 04:10:07;;;;;;;9.40;3.47;;;;;;;;;;5108882;28;20359;-82
2023/01/11 04:12:33;;;;;;;5.93;3.35;;;;;;;;;;5120868;28;20024;-82
2023/01/11 04:15:01;;;;;;;5.00;3.50;;;;;;;;;;5119622;28;20012;-81
2023/01/11 04:17:27;;;;;;;7.55;3.35;;;;;;;;;;5102979;28;20038;-82
2023/01/11 04:19:54;;;;;;;8.20;3.70;;;;;;;;;;5122559;28;20047;-80
2023/01/11 04:22:20;;;;;;;12.07;3.75;;;;;;;;;;5104242;28;20027;-80
2023/01/11 04:24:46;;;;;;;6.88;3.83;;;;;;;;;;5116554;28;20032;-82
2023/01/11 04:27:11;;;;;;;7.05;3.33;;;;;;;;;;5107108;28;20473;-82
2023/01/11 04:29:37;;;;;;;6.82;3.25;;;;;;;;;;5108365;28;20028;-82
2023/01/11 04:32:04;;;;;;;5.85;2.95;;;;;;;;;;5101717;28;20039;-82
2023/01/11 04:34:30;;;;;;;8.77;3.97;;;;;;;;;;5110970;28;20149;-81
2023/01/11 04:36:56;;;;;;;7.43;3.47;;;;;;;;;;5110526;28;20044;-81
2023/01/11 04:39:22;;;;;;;7.28;3.53;;;;;;;;;;5107930;28;20016;-82
2023/01/11 04:44:32;;;;;;;9.18;3.92;;;;;;;;;;5120499;28;20059;-81
2023/01/11 04:46:58;;;;;;;6.60;3.35;;;;;;;;;;5109523;28;20373;-81
2023/01/11 04:49:24;;;;;;;6.57;3.50;;;;;;;;;;5111925;28;20027;-82
2023/01/11 04:51:50;;;;;;;6.47;3.30;;;;;;;;;;5121688;28;20028;-82
2023/01/11 04:54:16;;;;;;;7.38;3.38;;;;;;;;;;5106742;27;20057;-81
2023/01/11 04:56:42;;;;;;;8.13;3.45;;;;;;;;;;5107770;28;20031;-81
2023/01/11 04:59:08;;;;;;;5.55;3.05;;;;;;;;;;5112011;27;20020;-82
2023/01/11 05:01:34;;;;;;;7.85;3.55;;;;;;;;;;5120640;28;20485;-82
2023/01/11 05:04:00;;;;;;;7.72;3.55;;;;;;;;;;5108402;28;20028;-82
2023/01/11 05:06:26;;;;;;;5.57;3.20;;;;;;;;;;5107857;28;20024;-82
2023/01/11 05:08:52;;;;;;;8.60;4.13;;;;;;;;;;5107029;28;20023;-82
2023/01/11 05:11:18;;;;;;;7.45;3.25;;;;;;;;;;5119776;28;20366;-82
2023/01/11 05:13:44;;;;;;;9.00;4.13;;;;;;;;;;5118246;28;20049;-82
2023/01/11 05:16:16;;;;;;;9.45;3.25;;;;;;;;;;5108740;28;20078;-81
2023/01/11 05:18:44;;;;;;;10.07;3.78;;;;;;;;;;5105437;28;20063;-81
2023/01/11 05:21:11;;;;;;;6.40;3.33;;;;;;;;;;5119966;28;20054;-81
2023/01/11 05:23:37;;;;;;;5.93;2.95;;;;;;;;;;5120051;28;20036;-81
2023/01/11 05:26:08;;;;;;;8.13;3.50;;;;;;;;;;5117451;28;20036;-80
2023/01/11 05:28:34;;;;;;;8.82;3.40;;;;;;;;;;5118474;28;20442;-81
2023/01/11 05:31:01;;;;;;;10.82;3.70;;;;;;;;;;5119282;28;20027;-82
2023/01/11 05:33:27;;;;;;;8.68;4.10;;;;;;;;;;5112806;28;20020;-81
2023/01/11 05:36:00;;;;;;;9.27;5.68;;;;;;;;;;5105736;28;20030;-82
2023/01/11 05:38:26;;;;;;;9.32;4.70;;;;;;;;;;5118079;28;20051;-82
2023/01/11 05:40:56;;;;;;;7.70;4.22;;;;;;;;;;5118112;28;20035;-81
2023/01/11 05:43:22;;;;;;;7.03;3.58;;;;;;;;;;5113169;28;20048;-81
2023/01/11 05:45:48;;;;;;;8.00;3.90;;;;;;;;;;5112609;27;20085;-81
2023/01/11 05:48:14;;;;;;;9.95;4.25;;;;;;;;;;5110498;28;20036;-80
2023/01/11 05:50:40;;;;;;;8.25;3.72;;;;;;;;;;5104709;28;20402;-81
2023/01/11 05:53:06;;;;;;;7.15;4.00;;;;;;;;;;5108839;28;20032;-81
2023/01/11 05:55:32;;;;;;;7.10;3.97;;;;;;;;;;5103863;27;20023;-81
2023/01/11 05:57:58;;;;;;;8.30;4.57;;;;;;;;;;5108556;28;20026;-80
2023/01/11 06:00:24;;;;;;;8.18;4.32;;;;;;;;;;5109712;27;20043;-80
2023/01/11 06:02:50;;;;;;;10.25;4.50;;;;;;;;;;5105114;28;20031;-81
2023/01/11 06:05:16;;;;;;;6.20;4.05;;;;;;;;;;5108358;28;20110;-81
2023/01/11 06:07:42;;;;;;;6.38;3.78;;;;;;;;;;5109377;28;20024;-81
2023/01/11 06:10:09;;;;;;;8.75;5.30;;;;;;;;;;5108253;28;20054;-81
2023/01/11 06:12:35;;;;;;;7.38;3.92;;;;;;;;;;5101542;27;20034;-81
2023/01/11 06:15:01;;;;;;;8.43;4.38;;;;;;;;;;5103107;28;20531;-81
2023/01/11 06:17:27;;;;;;;9.63;4.32;;;;;;;;;;5097260;28;20020;-81
2023/01/11 06:19:53;;;;;;;8.52;4.05;;;;;;;;;;5098309;28;20053;-81
2023/01/11 06:22:19;;;;;;;8.93;4.75;;;;;;;;;;5097845;28;20054;-81
2023/01/11 06:24:45;;;;;;;10.82;5.00;;;;;;;;;;5099464;28;20028;-81
2023/01/11 06:27:11;;;;;;;13.82;7.80;;;;;;;;;;5100576;28;20367;-81
2023/01/11 06:29:37;;;;;;;15.55;8.60;;;;;;;;;;5111729;28;20100;-81
2023/01/11 06:32:03;;;;;;;15.70;8.25;;;;;;;;;;5097370;28;20046;-81
2023/01/11 06:34:29;;;;;;;15.82;7.85;;;;;;;;;;5109082;28;20020;-80
2023/01/11 06:36:55;;;;;;;14.95;8.48;;;;;;;;;;5116527;28;20016;-81
2023/01/11 06:39:21;;;;;;;14.80;6.40;;;;;;;;;;5116425;28;20030;-81
2023/01/11 06:41:47;;;;;;;11.82;5.75;;;;;;;;;;5118655;28;20023;-81
2023/01/11 06:44:13;;;;;;;10.70;6.30;;;;;;;;;;5117706;28;20039;-81
2023/01/11 06:46:39;;;;;;;11.95;7.63;;;;;;;;;;5097337;28;20032;-81
2023/01/11 06:49:05;;;;;;;13.07;7.72;;;;;;;;;;5112684;27;20085;-81
2023/01/11 06:51:31;;;;;;;16.92;9.75;;;;;;;;;;5115830;28;20032;-80
2023/01/11 06:53:57;;;;;;;14.63;9.15;;;;;;;;;;5101900;28;20107;-81
2023/01/11 06:56:23;;;;;;;22.83;13.35;;;;;;;;;;5096758;28;20095;-81
2023/01/11 06:58:49;;;;;;;18.17;10.90;;;;;;;;;;5107012;28;20023;-81
2023/01/11 07:01:16;;;;;;;23.52;10.98;;;;;;;;;;5118602;28;20019;-81
2023/01/11 07:03:42;;;;;;;18.65;10.38;;;;;;;;;;5120266;28;20114;-81
2023/01/11 07:06:08;;;;;;;18.55;9.27;;;;;;;;;;5120192;28;20023;-81
2023/01/11 07:08:34;;;;;;;18.85;9.20;;;;;;;;;;5108654;28;20040;-80
2023/01/11 07:11:00;;;;;;;12.00;8.70;;;;;;;;;;5111633;28;20097;-81
2023/01/11 07:13:26;;;;;;;16.67;9.75;;;;;;;;;;5099554;28;20047;-81
2023/01/11 07:15:56;;;;;;;17.45;9.23;;;;;;;;;;5116530;28;20026;-82
2023/01/11 07:18:22;;;;;;;15.75;9.63;;;;;;;;;;5106461;28;20024;-81
2023/01/11 07:20:48;;;;;;;18.73;9.85;;;;;;;;;;5118663;28;20054;-80
2023/01/11 07:23:14;;;;;;;15.35;9.13;;;;;;;;;;5112523;27;20051;-81
2023/01/11 07:25:40;;;;;;;14.48;8.90;;;;;;;;;;5108252;28;20401;-81
2023/01/11 07:28:07;;;;;;;17.17;8.73;;;;;;;;;;5111293;27;20028;-81
2023/01/11 07:30:36;;;;;;;10.43;6.57;;;;;;;;;;5116771;28;20588;-81
2023/01/11 07:33:04;;;;;;;17.90;10.23;;;;;;;;;;5108919;28;20035;-81
2023/01/11 07:35:30;;;;;;;15.07;8.98;;;;;;;;;;5111053;28;20435;-82
2023/01/11 07:37:56;;;;;;;18.30;10.35;;;;;;;;;;5115256;28;20047;-82
2023/01/11 07:40:22;;;;;;;14.45;9.68;;;;;;;;;;5117016;28;20030;-81
2023/01/11 07:45:34;;;;;;;16.38;11.35;;;;;;;;;;5117474;28;20050;-82
2023/01/11 07:48:00;;;;;;;15.68;9.60;;;;;;;;;;5115576;28;20023;-82
2023/01/11 07:50:26;;;;;;;14.27;9.88;;;;;;;;;;5097719;28;20118;-82
2023/01/11 07:52:52;;;;;;;17.50;11.15;;;;;;;;;;5108088;28;20024;-80
2023/01/11 07:55:18;;;;;;;17.88;10.70;;;;;;;;;;5106557;28;20024;-81
2023/01/11 07:57:44;;;;;;;15.60;9.73;;;;;;;;;;5118429;28;20024;-80
2023/01/11 08:00:10;;;;;;;24.00;16.42;;;;;;;;;;5114945;28;20047;-81
2023/01/11 08:02:36;;;;;;;33.17;20.98;;;;;;;;;;5122639;28;20028;-80
2023/01/11 08:05:02;;;;;;;22.60;14.98;;;;;;;;;;5123432;28;20032;-81
2023/01/11 08:07:28;;;;;;;21.35;15.45;;;;;;;;;;5110711;28;20024;-79
2023/01/11 08:09:54;;;;;;;38.03;23.67;;;;;;;;;;5102294;28;20504;-81
2023/01/11 08:15:05;;;;;;;47.88;29.63;;;;;;;;;;5098260;28;20039;-81
2023/01/11 08:17:34;;;;;;;24.95;15.27;;;;;;;;;;5109610;28;20024;-82
2023/01/11 08:20:00;;;;;;;25.42;15.38;;;;;;;;;;5115781;28;20330;-82
2023/01/11 08:22:26;;;;;;;25.33;13.63;;;;;;;;;;5117176;28;20393;-82
2023/01/11 08:24:52;;;;;;;18.17;9.77;;;;;;;;;;5112931;28;20277;-82
2023/01/11 08:27:18;;;;;;;12.75;8.13;;;;;;;;;;5100561;28;20028;-81
2023/01/11 08:29:44;;;;;;;13.70;8.70;;;;;;;;;;5106437;28;20039;-80
2023/01/11 08:32:11;;;;;;;14.60;8.15;;;;;;;;;;5119651;28;20041;-79
2023/01/11 08:34:37;;;;;;;10.98;7.13;;;;;;;;;;5124937;28;20027;-82
2023/01/11 08:37:04;;;;;;;14.10;6.72;;;;;;;;;;5121000;28;20053;-80
2023/01/11 08:39:30;;;;;;;13.75;6.35;;;;;;;;;;5124032;28;20020;-81
2023/01/11 08:41:56;;;;;;;13.40;7.63;;;;;;;;;;5102506;28;20396;-82
2023/01/11 08:44:23;;;;;;;11.75;7.25;;;;;;;;;;5105415;28;20039;-81
2023/01/11 08:46:49;;;;;;;12.27;7.43;;;;;;;;;;5120401;28;20031;-81
2023/01/11 08:49:15;;;;;;;13.63;7.93;;;;;;;;;;5121857;28;20030;-81
2023/01/11 08:51:41;;;;;;;14.80;8.30;;;;;;;;;;5120529;28;20020;-81
2023/01/11 08:54:11;;;;;;;12.18;8.07;;;;;;;;;;5113404;28;20020;-81
2023/01/11 08:56:38;;;;;;;19.63;12.30;;;;;;;;;;5100142;28;20016;-81
2023/01/11 08:59:04;;;;;;;12.65;8.15;;;;;;;;;;5099782;28;20397;-81
2023/01/11 09:01:32;;;;;;;12.30;7.68;;;;;;;;;;5100483;28;20027;-81
2023/01/11 09:03:58;;;;;;;13.63;7.53;;;;;;;;;;5116081;28;20469;-81
2023/01/11 09:06:24;;;;;;;11.23;7.47;;;;;;;;;;5120021;28;20031;-81
2023/01/11 09:08:50;;;;;;;13.23;7.63;;;;;;;;;;5103955;28;20016;-82
2023/01/11 09:14:01;;;;;;;9.63;7.53;;;;;;;;;;5107279;28;20053;-81
2023/01/11 09:16:27;;;;;;;20.90;8.15;;;;;;;;;;5119615;28;20096;-81
2023/01/11 09:18:54;;;;;;;15.05;8.10;;;;;;;;;;5118919;28;20110;-81
2023/01/11 09:21:20;;;;;;;18.98;9.95;;;;;;;;;;5119394;28;20107;-81
2023/01/11 09:23:46;;;;;;;19.10;9.93;;;;;;;;;;5098552;28;20030;-81
2023/01/11 09:26:13;;;;;;;16.73;9.15;;;;;;;;;;5099435;28;20085;-81
2023/01/11 09:28:39;;;;;;;15.35;9.25;;;;;;;;;;5103610;28;20037;-81
2023/01/11 09:31:06;;;;;;;14.77;7.07;;;;;;;;;;5118371;28;20358;-80
2023/01/11 09:33:33;;;;;;;12.75;7.55;;;;;;;;;;5119280;28;20145;-80
2023/01/11 09:36:00;;;;;;;12.95;7.72;;;;;;;;;;5121072;28;20401;-81
2023/01/11 09:38:29;;;;;;;12.77;7.68;;;;;;;;;;5100788;28;20016;-80
2023/01/11 09:40:56;;;;;;;14.93;7.82;;;;;;;;;;5119810;28;20023;-81
2023/01/11 09:43:26;;;;;;;9.13;6.53;;;;;;;;;;5117996;28;20016;-82
2023/01/11 09:45:54;;;;;;;12.63;7.05;;;;;;;;;;5118775;28;20389;-81
2023/01/11 09:48:35;;;;;;;8.85;5.15;;;;;;;;;;5117397;28;20357;-81
2023/01/11 09:51:03;;;;;;;12.85;7.63;;;;;;;;;;5117316;28;20081;-81
2023/01/11 09:53:35;;;;;;;16.95;8.05;;;;;;;;;;5097491;28;20485;-81
2023/01/11 09:56:03;;;;;;;10.90;6.82;;;;;;;;;;5098443;28;20012;-82
2023/01/11 09:58:41;;;;;;;11.43;6.55;;;;;;;;;;5099400;28;20036;-81
2023/01/11 10:01:16;;;;;;;11.07;6.75;;;;;;;;;;5119078;28;20053;-81
2023/01/11 10:03:52;;;;;;;11.65;6.90;;;;;;;;;;5117054;28;20084;-81
2023/01/11 10:06:21;;;;;;;12.95;7.35;;;;;;;;;;5112630;28;20561;-82
2023/01/11 10:08:54;;;;;;;13.82;7.63;;;;;;;;;;5102437;28;20549;-81
2023/01/11 10:11:22;;;;;;;16.13;8.75;;;;;;;;;;5106996;28;20065;-81
2023/01/11 10:14:07;;;;;;;14.00;7.93;;;;;;;;;;5103567;28;20521;-79
2023/01/11 10:16:38;;;;;;;11.00;6.60;;;;;;;;;;5116684;28;20028;-81
2023/01/11 10:19:15;;;;;;;13.93;6.93;;;;;;;;;;5113941;28;20024;-81
2023/01/11 10:21:46;;;;;;;11.00;6.65;;;;;;;;;;5107317;28;20284;-81
2023/01/11 10:24:24;;;;;;;13.40;7.57;;;;;;;;;;5097632;28;20016;-81
2023/01/11 10:26:53;;;;;;;13.25;7.05;;;;;;;;;;5102233;28;20100;-81
2023/01/11 10:29:52;;;;;;;11.77;7.18;;;;;;;;;;5107097;28;20081;-81
2023/01/11 10:32:44;;;;;;;14.90;7.60;;;;;;;;;;5099066;28;20031;-80
2023/01/11 10:36:04;;;;;;;11.35;7.15;;;;;;;;;;5098464;28;20021;-82
2023/01/11 10:39:06;;;;;;;11.65;6.97;;;;;;;;;;5041391;28;20037;-81
2023/01/11 10:41:37;;;;;;;17.45;6.47;;;;;;;;;;5051474;28;20041;-81
2023/01/11 10:44:09;;;;;;;11.75;6.53;;;;;;;;;;5051772;28;20052;-81
2023/01/11 10:46:38;;;;;;;10.70;5.93;;;;;;;;;;5035342;28;20479;-81
2023/01/11 10:49:17;;;;;;;12.68;6.47;;;;;;;;;;5039320;28;20087;-81
2023/01/11 10:51:46;;;;;;;9.95;5.95;;;;;;;;;;5036066;28;20037;-80
2023/01/11 10:54:15;;;;;;;12.18;5.82;;;;;;;;;;5048510;28;20296;-81
2023/01/11 10:56:41;;;;;;;10.32;5.80;;;;;;;;;;5017863;28;20017;-80
2023/01/11 10:59:20;;;;;;;9.82;6.18;;;;;;;;;;5054113;28;20029;-81
2023/01/11 11:01:54;;;;;;;9.90;5.85;;;;;;;;;;5054466;28;20068;-81
2023/01/11 11:04:26;;;;;;;9.82;5.88;;;;;;;;;;5038912;28;20026;-81
2023/01/11 11:07:03;;;;;;;9.93;5.53;;;;;;;;;;5025341;28;20033;-81
2023/01/11 11:09:47;;;;;;;15.15;5.78;;;;;;;;;;5047437;28;20056;-81
2023/01/11 11:12:20;;;;;;;11.20;5.40;;;;;;;;;;5034904;28;20029;-81
2023/01/11 11:14:46;;;;;;;;;;;;;;;;;;5094340;28;20032;-81
2023/01/11 11:17:12;;;;;;;9.02;5.25;;;;;;;;;;5102038;28;19919;-80
2023/01/11 11:19:38;;;;;;;10.90;5.25;;;;;;;;;;5096499;28;20179;-80
2023/01/11 11:22:05;;;;;;;9.38;4.72;;;;;;;;;;5098113;28;20074;-81
2023/01/11 11:24:40;;;;;;;7.47;4.45;;;;;;;;;;5101334;28;20024;-80
2023/01/11 11:27:09;;;;;;;8.05;4.65;;;;;;;;;;5117558;28;20038;-81
2023/01/11 11:29:40;;;;;;;11.40;5.45;;;;;;;;;;5113827;28;20015;-81
2023/01/11 11:32:14;;;;;;;14.68;7.32;;;;;;;;;;5100666;28;20110;-81
2023/01/11 11:34:45;;;;;;;9.27;5.18;;;;;;;;;;5100156;28;20501;-82
2023/01/11 11:37:19;;;;;;;15.32;6.13;;;;;;;;;;5108063;28;20024;-81
2023/01/11 11:39:47;;;;;;;13.52;5.03;;;;;;;;;;5106739;28;20491;-81
2023/01/11 11:42:17;;;;;;;11.57;5.30;;;;;;;;;;5117928;28;20027;-81
2023/01/11 11:44:43;;;;;;;8.63;4.45;;;;;;;;;;5116866;28;20048;-81
2023/01/11 11:47:16;;;;;;;14.63;5.40;;;;;;;;;;5112214;28;20038;-81
2023/01/11 11:49:42;;;;;;;14.65;4.90;;;;;;;;;;5106905;28;20039;-80
2023/01/11 11:52:12;;;;;;;9.85;4.65;;;;;;;;;;5109229;28;20077;-82
2023/01/11 11:54:48;;;;;;;11.45;4.07;;;;;;;;;;5114931;28;20020;-81
2023/01/11 11:57:16;;;;;;;8.02;4.00;;;;;;;;;;5112388;28;20028;-80
2023/01/11 11:59:47;;;;;;;12.52;4.35;;;;;;;;;;5102770;28;20016;-81
2023/01/11 12:02:32;;;;;;;10.32;4.88;;;;;;;;;;5114209;28;20227;-80
2023/01/11 12:05:00;;;;;;;7.93;4.22;;;;;;;;;;5115361;28;20031;-81
2023/01/11 12:07:43;;;;;;;8.75;3.97;;;;;;;;;;5109625;28;20077;-81
2023/01/11 12:10:15;;;;;;;8.60;4.50;;;;;;;;;;5105598;28;20528;-81
2023/01/11 12:12:54;;;;;;;7.25;4.10;;;;;;;;;;5100131;28;20036;-80
2023/01/11 12:15:21;;;;;;;7.65;4.05;;;;;;;;;;5110675;28;20137;-81
2023/01/11 12:17:48;;;;;;;7.47;3.42;;;;;;;;;;5121178;28;20020;-81
2023/01/11 12:20:28;;;;;;;7.78;3.38;;;;;;;;;;5120089;28;20043;-81
2023/01/11 12:23:11;;;;;;;6.63;3.22;;;;;;;;;;5119459;27;20038;-81
2023/01/11 12:25:43;;;;;;;7.65;3.90;;;;;;;;;;5100259;28;20030;-81
2023/01/11 12:28:17;;;;;;;11.65;5.07;;;;;;;;;;5115253;28;20075;-81
2023/01/11 12:31:04;;;;;;;5.93;3.10;;;;;;;;;;5120447;28;20019;-80
2023/01/11 12:33:39;;;;;;;10.13;4.43;;;;;;;;;;5117296;28;20033;-81
2023/01/11 12:36:13;;;;;;;10.43;5.38;;;;;;;;;;5113057;28;20099;-81
2023/01/11 12:38:41;;;;;;;7.90;3.60;;;;;;;;;;5098508;28;20028;-81
2023/01/11 12:41:10;;;;;;;8.38;4.50;;;;;;;;;;5098994;28;20020;-81
2023/01/11 12:43:40;;;;;;;7.28;3.60;;;;;;;;;;5098833;28;20052;-80
2023/01/11 12:46:24;;;;;;;7.53;4.07;;;;;;;;;;5100212;28;20024;-81
2023/01/11 12:49:29;;;;;;;6.32;3.83;;;;;;;;;;5100732;28;20020;-81
2023/01/11 12:52:15;;;;;;;6.53;3.75;;;;;;;;;;5056705;28;20029;-81
2023/01/11 12:54:50;;;;;;;30.65;22.73;;;;;;;;;;5056775;28;20072;-81
2023/01/11 12:57:30;;;;;;;11.25;5.68;;;;;;;;;;5088824;28;20497;-79
2023/01/11 12:59:56;;;;;;;8.13;4.47;;;;;;;;;;5099734;28;20020;-80
2023/01/11 13:02:35;;;;;;;8.10;2.78;;;;;;;;;;5117202;28;20035;-81
2023/01/11 13:05:13;;;;;;;7.10;2.90;;;;;;;;;;5103079;28;20021;-82
2023/01/11 13:07:54;;;;;;;8.60;3.60;;;;;;;;;;5100571;28;20083;-81
2023/01/11 13:10:28;;;;;;;10.10;4.38;;;;;;;;;;5099851;28;20028;-81
2023/01/11 13:13:00;;;;;;;6.85;3.28;;;;;;;;;;5105208;28;20036;-80
2023/01/11 13:15:42;;;;;;;8.00;2.90;;;;;;;;;;5107113;28;20481;-82
2023/01/11 13:18:24;;;;;;;6.10;3.05;;;;;;;;;;5110721;28;20016;-81
2023/01/11 13:20:53;;;;;;;9.18;3.95;;;;;;;;;;5106113;28;20028;-80
2023/01/11 13:23:57;;;;;;;9.27;3.50;;;;;;;;;;5117902;28;20023;-81
2023/01/11 13:26:28;;;;;;;9.07;4.38;;;;;;;;;;5071186;28;20055;-81
2023/01/11 13:28:57;;;;;;;6.78;3.20;;;;;;;;;;5059098;28;20642;-82
2023/01/11 13:31:23;;;;;;;7.97;3.33;;;;;;;;;;5076375;28;20044;-82
2023/01/11 13:33:54;;;;;;;7.93;3.60;;;;;;;;;;5074558;28;20070;-81
2023/01/11 13:36:22;;;;;;;8.75;2.92;;;;;;;;;;5076255;28;20028;-81
2023/01/11 13:38:51;;;;;;;6.63;2.92;;;;;;;;;;5074681;28;20591;-81
2023/01/11 13:41:35;;;;;;;9.43;2.78;;;;;;;;;;5064222;28;20028;-80
2023/01/11 13:44:28;;;;;;;6.80;3.10;;;;;;;;;;5075084;28;20557;-80
2023/01/11 13:46:59;;;;;;;12.68;3.95;;;;;;;;;;5068748;28;20044;-81
2023/01/11 13:49:44;;;;;;;8.93;4.60;;;;;;;;;;5059611;28;20111;-81
2023/01/11 13:52:14;;;;;;;9.50;4.07;;;;;;;;;;5071654;28;20521;-81
2023/01/11 13:54:40;;;;;;;5.90;3.47;;;;;;;;;;5073992;28;20155;-81
2023/01/11 13:57:10;;;;;;;9.38;4.07;;;;;;;;;;5093934;28;20074;-82
2023/01/11 13:59:43;;;;;;;8.05;3.60;;;;;;;;;;5115653;27;20103;-81
2023/01/11 14:02:08;;;;;;;;;;;;;;;;;;5125738;27;20023;-80
2023/01/11 14:04:34;;;;;;;10.95;5.35;;;;;;;;;;5120637;27;19961;-82
2023/01/11 14:07:10;;;;;;;15.60;4.85;;;;;;;;;;5111499;28;20052;-83
2023/01/11 14:09:46;;;;;;;10.35;4.60;;;;;;;;;;5121068;28;20035;-81
2023/01/11 14:12:18;;;;;;;9.38;4.78;;;;;;;;;;5119249;28;20036;-82
2023/01/11 14:14:47;;;;;;;9.60;4.18;;;;;;;;;;5121163;28;20023;-82
2023/01/11 14:17:43;;;;;;;8.73;5.13;;;;;;;;;;5102048;28;20112;-82
2023/01/11 14:20:21;;;;;;;11.27;5.40;;;;;;;;;;5101612;28;20402;-82
2023/01/11 14:22:47;;;;;;;13.45;6.25;;;;;;;;;;5118606;28;20034;-82
2023/01/11 14:25:16;;;;;;;11.10;5.63;;;;;;;;;;5118891;28;20099;-82
2023/01/11 14:27:49;;;;;;;9.43;5.22;;;;;;;;;;5117293;28;20027;-81
2023/01/11 14:30:32;;;;;;;7.88;4.22;;;;;;;;;;5107133;28;20085;-82
2023/01/11 14:33:10;;;;;;;11.52;4.25;;;;;;;;;;5109311;27;20085;-82
2023/01/11 14:36:08;;;;;;;6.32;3.80;;;;;;;;;;5099943;28;20077;-82
2023/01/11 14:38:45;;;;;;;8.68;4.38;;;;;;;;;;5095393;28;20036;-82
2023/01/11 14:41:25;;;;;;;10.13;4.35;;;;;;;;;;5109375;28;20050;-81
2023/01/11 14:44:00;;;;;;;12.05;4.35;;;;;;;;;;5111372;28;20123;-79
2023/01/11 14:46:38;;;;;;;8.00;4.30;;;;;;;;;;5126118;28;20055;-80
2023/01/11 14:49:23;;;;;;;8.50;4.43;;;;;;;;;;5117026;28;20027;-82
2023/01/11 14:51:58;;;;;;;14.80;5.75;;;;;;;;;;5108778;28;20094;-82
2023/01/11 14:54:27;;;;;;;10.13;5.47;;;;;;;;;;5115164;28;20424;-82
2023/01/11 14:56:57;;;;;;;13.75;6.55;;;;;;;;;;5118543;28;20020;-82
2023/01/11 14:59:23;;;;;;;10.40;5.18;;;;;;;;;;5114654;28;20447;-81
2023/01/11 15:02:04;;;;;;;10.48;4.72;;;;;;;;;;5101012;28;20024;-82
2023/01/11 15:04:32;;;;;;;8.60;4.78;;;;;;;;;;5106994;28;20050;-81
2023/01/11 15:06:58;;;;;;;10.15;4.70;;;;;;;;;;5116660;27;20030;-82
2023/01/11 15:09:43;;;;;;;10.23;5.30;;;;;;;;;;5114168;28;20030;-82
2023/01/11 15:12:28;;;;;;;27.52;11.38;;;;;;;;;;5100095;28;20028;-82
2023/01/11 15:14:56;;;;;;;36.90;16.52;;;;;;;;;;5119316;28;20023;-81
2023/01/11 15:20:10;;;;;;;15.93;7.07;;;;;;;;;;5112530;28;20523;-79
2023/01/11 15:22:37;;;;;;;18.45;7.85;;;;;;;;;;5118991;28;20496;-82
2023/01/11 15:25:23;;;;;;;16.77;8.32;;;;;;;;;;5116673;28;20115;-81